sensor_id;sensor_type;location;lat;lon;timestamp;P1;durP1;ratioP1;P2;durP2;ratioP2
27293;SDS011;14785;52.556;13.430;2023-04-15T00:02:21;23.00;;;12.03;;
27293;SDS011;14785;52.556;13.430;2023-04-15T00:04:47;20.43;;;12.43;;
27293;SDS011;14785;52.556;13.430;2023-04-15T00:07:13;11.93;;;5.90;;
27293;SDS011;14785;52.556;13.430;2023-04-15T00:09:39;14.48;;;7.22;;
27293;SDS011;14785;52.556;13.430;2023-04-15T00:12:05;18.88;;;8.73;;
27293;SDS011;14785;52.556;13.430;2023-04-15T00:14:32;13.80;;;7.75;;
27293;SDS011;14785;52.556;13.430;2023-04-15T00:16:59;12.02;;;7.45;;
27293;SDS011;14785;52.556;13.430;2023-04-15T00:19:25;17.37;;;8.53;;
27293;SDS011;14785;52.556;13.430;2023-04-15T00:21:50;14.77;;;7.03;;
27293;SDS011;14785;52.556;13.430;2023-04-15T00:24:16;20.77;;;10.10;;
27293;SDS011;14785;52.556;13.430;2023-04-15T00:26:41;26.30;;;11.87;;
27293;SDS011;14785;52.556;13.430;2023-04-15T00:29:07;18.83;;;10.10;;
27293;SDS011;14785;52.556;13.430;2023-04-15T00:31:32;23.93;;;10.30;;
27293;SDS011;14785;52.556;13.430;2023-04-15T00:33:58;19.77;;;9.40;;
27293;SDS011;14785;52.556;13.430;2023-04-15T00:36:23;19.90;;;11.10;;
27293;SDS011;14785;52.556;13.430;2023-04-15T00:41:15;24.42;;;11.30;;
27293;SDS011;14785;52.556;13.430;2023-04-15T00:43:43;18.75;;;10.23;;
27293;SDS011;14785;52.556;13.430;2023-04-15T00:46:09;29.53;;;12.70;;
27293;SDS011;14785;52.556;13.430;2023-04-15T00:48:39;21.40;;;11.02;;
27293;SDS011;14785;52.556;13.430;2023-04-15T00:51:05;27.83;;;12.63;;
27293;SDS011;14785;52.556;13.430;2023-04-15T00:53:31;20.73;;;10.93;;
27293;SDS011;14785;52.556;13.430;2023-04-15T00:55:57;19.52;;;10.13;;
27293;SDS011;14785;52.556;13.430;2023-04-15T00:58:22;25.37;;;13.20;;
27293;SDS011;14785;52.556;13.430;2023-04-15T01:00:48;24.15;;;11.93;;
27293;SDS011;14785;52.556;13.430;2023-04-15T01:03:18;24.02;;;12.13;;
27293;SDS011;14785;52.556;13.430;2023-04-15T01:05:43;27.27;;;12.88;;
27293;SDS011;14785;52.556;13.430;2023-04-15T01:08:09;27.17;;;12.20;;
27293;SDS011;14785;52.556;13.430;2023-04-15T01:10:35;23.07;;;12.87;;
27293;SDS011;14785;52.556;13.430;2023-04-15T01:13:01;16.80;;;9.97;;
27293;SDS011;14785;52.556;13.430;2023-04-15T01:17:52;24.30;;;13.23;;
27293;SDS011;14785;52.556;13.430;2023-04-15T01:20:18;20.73;;;10.53;;
27293;SDS011;14785;52.556;13.430;2023-04-15T01:22:44;23.95;;;10.85;;
27293;SDS011;14785;52.556;13.430;2023-04-15T01:25:10;22.57;;;12.40;;
27293;SDS011;14785;52.556;13.430;2023-04-15T01:27:41;24.55;;;12.95;;
27293;SDS011;14785;52.556;13.430;2023-04-15T01:30:07;23.65;;;9.88;;
27293;SDS011;14785;52.556;13.430;2023-04-15T01:32:34;21.27;;;9.75;;
27293;SDS011;14785;52.556;13.430;2023-04-15T01:35:00;28.17;;;13.40;;
27293;SDS011;14785;52.556;13.430;2023-04-15T01:37:26;23.17;;;11.45;;
27293;SDS011;14785;52.556;13.430;2023-04-15T01:39:51;27.50;;;12.73;;
27293;SDS011;14785;52.556;13.430;2023-04-15T01:42:17;28.77;;;13.87;;
27293;SDS011;14785;52.556;13.430;2023-04-15T01:44:42;28.13;;;13.03;;
27293;SDS011;14785;52.556;13.430;2023-04-15T01:47:07;31.10;;;13.27;;
27293;SDS011;14785;52.556;13.430;2023-04-15T01:49:33;22.27;;;11.43;;
27293;SDS011;14785;52.556;13.430;2023-04-15T01:51:58;24.23;;;11.60;;
27293;SDS011;14785;52.556;13.430;2023-04-15T01:54:24;30.73;;;14.07;;
27293;SDS011;14785;52.556;13.430;2023-04-15T01:56:51;23.70;;;12.93;;
27293;SDS011;14785;52.556;13.430;2023-04-15T01:59:17;21.57;;;11.07;;
27293;SDS011;14785;52.556;13.430;2023-04-15T02:01:42;28.02;;;13.07;;
27293;SDS011;14785;52.556;13.430;2023-04-15T02:04:09;28.92;;;12.55;;
27293;SDS011;14785;52.556;13.430;2023-04-15T02:06:40;25.00;;;12.77;;
27293;SDS011;14785;52.556;13.430;2023-04-15T02:09:10;28.50;;;12.95;;
27293;SDS011;14785;52.556;13.430;2023-04-15T02:11:35;29.33;;;13.80;;
27293;SDS011;14785;52.556;13.430;2023-04-15T02:14:04;32.95;;;16.65;;
27293;SDS011;14785;52.556;13.430;2023-04-15T02:16:30;25.95;;;13.43;;
27293;SDS011;14785;52.556;13.430;2023-04-15T02:18:57;24.77;;;11.10;;
27293;SDS011;14785;52.556;13.430;2023-04-15T02:21:24;30.67;;;15.37;;
27293;SDS011;14785;52.556;13.430;2023-04-15T02:23:50;28.08;;;14.52;;
27293;SDS011;14785;52.556;13.430;2023-04-15T02:26:17;30.10;;;14.43;;
27293;SDS011;14785;52.556;13.430;2023-04-15T02:28:43;30.27;;;11.50;;
27293;SDS011;14785;52.556;13.430;2023-04-15T02:31:08;38.90;;;14.10;;
27293;SDS011;14785;52.556;13.430;2023-04-15T02:33:34;25.93;;;12.80;;
27293;SDS011;14785;52.556;13.430;2023-04-15T02:36:01;24.27;;;12.50;;
27293;SDS011;14785;52.556;13.430;2023-04-15T02:38:26;32.73;;;13.60;;
27293;SDS011;14785;52.556;13.430;2023-04-15T02:40:51;23.17;;;9.60;;
27293;SDS011;14785;52.556;13.430;2023-04-15T02:43:17;25.47;;;12.00;;
27293;SDS011;14785;52.556;13.430;2023-04-15T02:45:42;22.07;;;13.07;;
27293;SDS011;14785;52.556;13.430;2023-04-15T02:48:09;42.22;;;13.63;;
27293;SDS011;14785;52.556;13.430;2023-04-15T02:50:35;23.88;;;10.82;;
27293;SDS011;14785;52.556;13.430;2023-04-15T02:53:01;26.88;;;12.70;;
27293;SDS011;14785;52.556;13.430;2023-04-15T02:55:27;21.93;;;11.60;;
27293;SDS011;14785;52.556;13.430;2023-04-15T02:57:53;24.60;;;12.98;;
27293;SDS011;14785;52.556;13.430;2023-04-15T03:00:18;38.33;;;14.47;;
27293;SDS011;14785;52.556;13.430;2023-04-15T03:02:44;40.65;;;11.32;;
27293;SDS011;14785;52.556;13.430;2023-04-15T03:05:11;25.17;;;11.75;;
27293;SDS011;14785;52.556;13.430;2023-04-15T03:07:37;19.52;;;11.00;;
27293;SDS011;14785;52.556;13.430;2023-04-15T03:10:04;26.35;;;11.43;;
27293;SDS011;14785;52.556;13.430;2023-04-15T03:14:56;25.47;;;11.57;;
27293;SDS011;14785;52.556;13.430;2023-04-15T03:17:21;32.27;;;14.93;;
27293;SDS011;14785;52.556;13.430;2023-04-15T03:19:46;27.03;;;9.97;;
27293;SDS011;14785;52.556;13.430;2023-04-15T03:22:12;26.17;;;13.70;;
27293;SDS011;14785;52.556;13.430;2023-04-15T03:24:37;21.70;;;10.70;;
27293;SDS011;14785;52.556;13.430;2023-04-15T03:27:03;30.23;;;13.77;;
27293;SDS011;14785;52.556;13.430;2023-04-15T03:29:30;33.15;;;15.35;;
27293;SDS011;14785;52.556;13.430;2023-04-15T03:31:55;23.93;;;11.37;;
27293;SDS011;14785;52.556;13.430;2023-04-15T03:34:21;24.73;;;9.17;;
27293;SDS011;14785;52.556;13.430;2023-04-15T03:36:47;19.55;;;8.75;;
27293;SDS011;14785;52.556;13.430;2023-04-15T03:39:12;26.30;;;12.23;;
27293;SDS011;14785;52.556;13.430;2023-04-15T03:41:38;30.07;;;12.00;;
27293;SDS011;14785;52.556;13.430;2023-04-15T03:44:03;22.63;;;13.43;;
27293;SDS011;14785;52.556;13.430;2023-04-15T03:46:29;21.93;;;9.17;;
27293;SDS011;14785;52.556;13.430;2023-04-15T03:48:54;15.20;;;8.80;;
27293;SDS011;14785;52.556;13.430;2023-04-15T03:51:20;29.10;;;12.40;;
27293;SDS011;14785;52.556;13.430;2023-04-15T03:53:45;32.20;;;14.63;;
27293;SDS011;14785;52.556;13.430;2023-04-15T03:56:10;24.47;;;11.97;;
27293;SDS011;14785;52.556;13.430;2023-04-15T03:58:36;26.30;;;13.70;;
27293;SDS011;14785;52.556;13.430;2023-04-15T04:01:01;27.07;;;11.90;;
27293;SDS011;14785;52.556;13.430;2023-04-15T04:03:27;21.50;;;10.07;;
27293;SDS011;14785;52.556;13.430;2023-04-15T04:05:52;14.77;;;8.07;;
27293;SDS011;14785;52.556;13.430;2023-04-15T04:08:17;15.57;;;7.77;;
27293;SDS011;14785;52.556;13.430;2023-04-15T04:13:09;25.52;;;11.75;;
27293;SDS011;14785;52.556;13.430;2023-04-15T04:15:35;21.60;;;10.53;;
27293;SDS011;14785;52.556;13.430;2023-04-15T04:18:00;23.03;;;11.13;;
27293;SDS011;14785;52.556;13.430;2023-04-15T04:20:26;22.07;;;10.53;;
27293;SDS011;14785;52.556;13.430;2023-04-15T04:22:51;19.33;;;9.87;;
27293;SDS011;14785;52.556;13.430;2023-04-15T04:25:16;16.33;;;8.20;;
27293;SDS011;14785;52.556;13.430;2023-04-15T04:27:42;19.87;;;9.63;;
27293;SDS011;14785;52.556;13.430;2023-04-15T04:30:09;24.02;;;11.70;;
27293;SDS011;14785;52.556;13.430;2023-04-15T04:32:35;25.85;;;12.80;;
27293;SDS011;14785;52.556;13.430;2023-04-15T04:35:01;22.03;;;11.07;;
27293;SDS011;14785;52.556;13.430;2023-04-15T04:37:26;27.35;;;12.70;;
27293;SDS011;14785;52.556;13.430;2023-04-15T04:39:52;18.45;;;9.90;;
27293;SDS011;14785;52.556;13.430;2023-04-15T04:42:18;24.57;;;11.73;;
27293;SDS011;14785;52.556;13.430;2023-04-15T04:44:43;31.77;;;14.13;;
27293;SDS011;14785;52.556;13.430;2023-04-15T04:47:08;19.23;;;10.23;;
27293;SDS011;14785;52.556;13.430;2023-04-15T04:49:34;18.80;;;8.93;;
27293;SDS011;14785;52.556;13.430;2023-04-15T04:51:59;22.27;;;11.93;;
27293;SDS011;14785;52.556;13.430;2023-04-15T04:54:25;18.77;;;10.53;;
27293;SDS011;14785;52.556;13.430;2023-04-15T04:56:51;18.92;;;10.13;;
27293;SDS011;14785;52.556;13.430;2023-04-15T04:59:17;18.47;;;10.87;;
27293;SDS011;14785;52.556;13.430;2023-04-15T05:01:42;15.73;;;7.73;;
27293;SDS011;14785;52.556;13.430;2023-04-15T05:04:08;19.93;;;10.83;;
27293;SDS011;14785;52.556;13.430;2023-04-15T05:06:33;20.60;;;10.60;;
27293;SDS011;14785;52.556;13.430;2023-04-15T05:09:00;19.27;;;9.20;;
27293;SDS011;14785;52.556;13.430;2023-04-15T05:13:52;12.27;;;7.13;;
27293;SDS011;14785;52.556;13.430;2023-04-15T05:16:17;19.93;;;8.53;;
27293;SDS011;14785;52.556;13.430;2023-04-15T05:18:43;18.70;;;8.80;;
27293;SDS011;14785;52.556;13.430;2023-04-15T05:21:09;19.60;;;9.93;;
27293;SDS011;14785;52.556;13.430;2023-04-15T05:23:34;19.30;;;10.17;;
27293;SDS011;14785;52.556;13.430;2023-04-15T05:26:00;18.00;;;9.17;;
27293;SDS011;14785;52.556;13.430;2023-04-15T05:28:25;19.43;;;10.20;;
27293;SDS011;14785;52.556;13.430;2023-04-15T05:30:51;17.10;;;9.83;;
27293;SDS011;14785;52.556;13.430;2023-04-15T05:33:16;15.30;;;8.57;;
27293;SDS011;14785;52.556;13.430;2023-04-15T05:35:42;26.80;;;10.33;;
27293;SDS011;14785;52.556;13.430;2023-04-15T05:38:07;13.67;;;7.47;;
27293;SDS011;14785;52.556;13.430;2023-04-15T05:40:32;16.60;;;7.37;;
27293;SDS011;14785;52.556;13.430;2023-04-15T05:42:58;12.70;;;6.47;;
27293;SDS011;14785;52.556;13.430;2023-04-15T05:45:23;9.53;;;6.07;;
27293;SDS011;14785;52.556;13.430;2023-04-15T05:47:49;17.17;;;9.83;;
27293;SDS011;14785;52.556;13.430;2023-04-15T05:50:17;12.18;;;6.18;;
27293;SDS011;14785;52.556;13.430;2023-04-15T05:52:43;11.93;;;5.57;;
27293;SDS011;14785;52.556;13.430;2023-04-15T05:55:10;13.40;;;6.22;;
27293;SDS011;14785;52.556;13.430;2023-04-15T05:57:35;15.10;;;7.68;;
27293;SDS011;14785;52.556;13.430;2023-04-15T06:00:01;15.88;;;7.22;;
27293;SDS011;14785;52.556;13.430;2023-04-15T06:02:29;14.15;;;7.85;;
27293;SDS011;14785;52.556;13.430;2023-04-15T06:04:55;12.13;;;6.35;;
27293;SDS011;14785;52.556;13.430;2023-04-15T06:07:21;12.68;;;6.28;;
27293;SDS011;14785;52.556;13.430;2023-04-15T06:09:47;14.25;;;6.15;;
27293;SDS011;14785;52.556;13.430;2023-04-15T06:12:13;13.00;;;6.32;;
27293;SDS011;14785;52.556;13.430;2023-04-15T06:14:38;12.97;;;7.33;;
27293;SDS011;14785;52.556;13.430;2023-04-15T06:17:04;12.40;;;5.83;;
27293;SDS011;14785;52.556;13.430;2023-04-15T06:19:30;13.02;;;6.63;;
27293;SDS011;14785;52.556;13.430;2023-04-15T06:21:56;12.63;;;6.97;;
27293;SDS011;14785;52.556;13.430;2023-04-15T06:24:22;14.48;;;8.18;;
27293;SDS011;14785;52.556;13.430;2023-04-15T06:26:47;15.97;;;8.70;;
27293;SDS011;14785;52.556;13.430;2023-04-15T06:29:13;13.13;;;7.07;;
27293;SDS011;14785;52.556;13.430;2023-04-15T06:31:38;12.33;;;6.90;;
27293;SDS011;14785;52.556;13.430;2023-04-15T06:34:04;13.77;;;6.90;;
27293;SDS011;14785;52.556;13.430;2023-04-15T06:36:30;14.77;;;6.95;;
27293;SDS011;14785;52.556;13.430;2023-04-15T06:38:56;12.40;;;7.07;;
27293;SDS011;14785;52.556;13.430;2023-04-15T06:41:21;11.50;;;6.60;;
27293;SDS011;14785;52.556;13.430;2023-04-15T06:43:47;16.97;;;4.63;;
27293;SDS011;14785;52.556;13.430;2023-04-15T06:46:13;12.90;;;6.67;;
27293;SDS011;14785;52.556;13.430;2023-04-15T06:48:38;12.70;;;6.57;;
27293;SDS011;14785;52.556;13.430;2023-04-15T06:51:04;10.10;;;5.13;;
27293;SDS011;14785;52.556;13.430;2023-04-15T06:53:30;10.77;;;5.18;;
27293;SDS011;14785;52.556;13.430;2023-04-15T06:55:55;7.83;;;4.97;;
27293;SDS011;14785;52.556;13.430;2023-04-15T06:58:21;12.30;;;4.97;;
27293;SDS011;14785;52.556;13.430;2023-04-15T07:00:46;10.90;;;6.13;;
27293;SDS011;14785;52.556;13.430;2023-04-15T07:03:12;14.52;;;6.85;;
27293;SDS011;14785;52.556;13.430;2023-04-15T07:05:39;14.73;;;5.78;;
27293;SDS011;14785;52.556;13.430;2023-04-15T07:08:05;7.10;;;4.63;;
27293;SDS011;14785;52.556;13.430;2023-04-15T07:10:32;11.80;;;6.13;;
27293;SDS011;14785;52.556;13.430;2023-04-15T07:15:23;10.43;;;6.07;;
27293;SDS011;14785;52.556;13.430;2023-04-15T07:17:49;8.90;;;4.80;;
27293;SDS011;14785;52.556;13.430;2023-04-15T07:20:14;12.00;;;5.97;;
27293;SDS011;14785;52.556;13.430;2023-04-15T07:22:40;10.00;;;6.03;;
27293;SDS011;14785;52.556;13.430;2023-04-15T07:25:05;9.70;;;5.10;;
27293;SDS011;14785;52.556;13.430;2023-04-15T07:27:31;11.93;;;5.28;;
27293;SDS011;14785;52.556;13.430;2023-04-15T07:29:57;10.83;;;5.73;;
27293;SDS011;14785;52.556;13.430;2023-04-15T07:32:22;12.53;;;6.40;;
27293;SDS011;14785;52.556;13.430;2023-04-15T07:34:49;10.07;;;5.60;;
27293;SDS011;14785;52.556;13.430;2023-04-15T07:37:14;9.47;;;5.17;;
27293;SDS011;14785;52.556;13.430;2023-04-15T07:39:40;11.43;;;5.90;;
27293;SDS011;14785;52.556;13.430;2023-04-15T07:42:05;9.27;;;6.27;;
27293;SDS011;14785;52.556;13.430;2023-04-15T07:44:31;11.10;;;5.73;;
27293;SDS011;14785;52.556;13.430;2023-04-15T07:46:58;10.93;;;5.87;;
27293;SDS011;14785;52.556;13.430;2023-04-15T07:49:23;10.10;;;5.57;;
27293;SDS011;14785;52.556;13.430;2023-04-15T07:51:49;10.27;;;5.53;;
27293;SDS011;14785;52.556;13.430;2023-04-15T07:54:15;8.48;;;4.63;;
27293;SDS011;14785;52.556;13.430;2023-04-15T07:56:41;13.50;;;5.23;;
27293;SDS011;14785;52.556;13.430;2023-04-15T07:59:06;8.87;;;5.03;;
27293;SDS011;14785;52.556;13.430;2023-04-15T08:01:35;13.07;;;6.72;;
27293;SDS011;14785;52.556;13.430;2023-04-15T08:04:00;9.30;;;5.82;;
27293;SDS011;14785;52.556;13.430;2023-04-15T08:06:26;10.73;;;4.93;;
27293;SDS011;14785;52.556;13.430;2023-04-15T08:08:51;8.63;;;6.20;;
27293;SDS011;14785;52.556;13.430;2023-04-15T08:11:18;11.63;;;5.95;;
27293;SDS011;14785;52.556;13.430;2023-04-15T08:13:45;11.50;;;6.28;;
27293;SDS011;14785;52.556;13.430;2023-04-15T08:16:12;11.50;;;6.53;;
27293;SDS011;14785;52.556;13.430;2023-04-15T08:18:48;13.75;;;7.28;;
27293;SDS011;14785;52.556;13.430;2023-04-15T08:21:16;10.25;;;5.60;;
27293;SDS011;14785;52.556;13.430;2023-04-15T08:23:44;12.68;;;6.30;;
27293;SDS011;14785;52.556;13.430;2023-04-15T08:26:10;10.30;;;5.53;;
27293;SDS011;14785;52.556;13.430;2023-04-15T08:28:38;13.13;;;6.82;;
27293;SDS011;14785;52.556;13.430;2023-04-15T08:31:05;11.38;;;6.68;;
27293;SDS011;14785;52.556;13.430;2023-04-15T08:33:30;7.70;;;4.87;;
27293;SDS011;14785;52.556;13.430;2023-04-15T08:35:56;7.33;;;4.43;;
27293;SDS011;14785;52.556;13.430;2023-04-15T08:38:21;11.82;;;6.40;;
27293;SDS011;14785;52.556;13.430;2023-04-15T08:40:47;13.63;;;7.15;;
27293;SDS011;14785;52.556;13.430;2023-04-15T08:43:56;15.20;;;7.63;;
27293;SDS011;14785;52.556;13.430;2023-04-15T08:46:08;10.98;;;6.35;;
27293;SDS011;14785;52.556;13.430;2023-04-15T08:48:36;14.32;;;6.80;;
27293;SDS011;14785;52.556;13.430;2023-04-15T08:51:04;12.73;;;7.43;;
27293;SDS011;14785;52.556;13.430;2023-04-15T08:53:30;18.73;;;8.07;;
27293;SDS011;14785;52.556;13.430;2023-04-15T08:55:56;13.52;;;6.78;;
27293;SDS011;14785;52.556;13.430;2023-04-15T08:58:29;11.73;;;6.18;;
27293;SDS011;14785;52.556;13.430;2023-04-15T09:00:55;11.50;;;5.90;;
27293;SDS011;14785;52.556;13.430;2023-04-15T09:03:21;12.07;;;5.18;;
27293;SDS011;14785;52.556;13.430;2023-04-15T09:05:47;11.18;;;6.32;;
27293;SDS011;14785;52.556;13.430;2023-04-15T09:08:14;16.30;;;7.40;;
27293;SDS011;14785;52.556;13.430;2023-04-15T09:10:40;12.27;;;5.90;;
27293;SDS011;14785;52.556;13.430;2023-04-15T09:13:05;8.77;;;5.57;;
27293;SDS011;14785;52.556;13.430;2023-04-15T09:15:31;9.73;;;5.37;;
27293;SDS011;14785;52.556;13.430;2023-04-15T09:17:57;10.35;;;6.95;;
27293;SDS011;14785;52.556;13.430;2023-04-15T09:20:22;12.23;;;5.73;;
27293;SDS011;14785;52.556;13.430;2023-04-15T09:22:49;9.18;;;6.15;;
27293;SDS011;14785;52.556;13.430;2023-04-15T09:27:47;10.00;;;5.68;;
27293;SDS011;14785;52.556;13.430;2023-04-15T09:30:14;8.63;;;6.07;;
27293;SDS011;14785;52.556;13.430;2023-04-15T09:32:52;10.25;;;6.38;;
27293;SDS011;14785;52.556;13.430;2023-04-15T09:35:23;10.10;;;7.03;;
27293;SDS011;14785;52.556;13.430;2023-04-15T09:37:51;10.10;;;5.97;;
27293;SDS011;14785;52.556;13.430;2023-04-15T09:43:01;12.45;;;6.20;;
27293;SDS011;14785;52.556;13.430;2023-04-15T09:45:31;13.48;;;5.95;;
27293;SDS011;14785;52.556;13.430;2023-04-15T09:47:57;9.38;;;4.93;;
27293;SDS011;14785;52.556;13.430;2023-04-15T09:50:27;12.10;;;6.50;;
27293;SDS011;14785;52.556;13.430;2023-04-15T09:52:54;9.45;;;5.70;;
27293;SDS011;14785;52.556;13.430;2023-04-15T09:57:46;11.88;;;6.68;;
27293;SDS011;14785;52.556;13.430;2023-04-15T10:00:12;9.25;;;5.28;;
27293;SDS011;14785;52.556;13.430;2023-04-15T10:05:04;10.00;;;5.45;;
27293;SDS011;14785;52.556;13.430;2023-04-15T10:07:31;8.43;;;5.60;;
27293;SDS011;14785;52.556;13.430;2023-04-15T10:09:59;9.93;;;5.75;;
27293;SDS011;14785;52.556;13.430;2023-04-15T10:12:26;9.02;;;5.28;;
27293;SDS011;14785;52.556;13.430;2023-04-15T10:14:57;7.63;;;4.63;;
27293;SDS011;14785;52.556;13.430;2023-04-15T10:17:26;11.25;;;5.53;;
27293;SDS011;14785;52.556;13.430;2023-04-15T10:19:58;8.95;;;5.15;;
27293;SDS011;14785;52.556;13.430;2023-04-15T10:22:25;10.82;;;5.82;;
27293;SDS011;14785;52.556;13.430;2023-04-15T10:24:52;9.80;;;5.13;;
27293;SDS011;14785;52.556;13.430;2023-04-15T10:27:17;8.73;;;5.47;;
27293;SDS011;14785;52.556;13.430;2023-04-15T10:32:10;12.38;;;6.00;;
27293;SDS011;14785;52.556;13.430;2023-04-15T10:34:36;9.23;;;6.32;;
27293;SDS011;14785;52.556;13.430;2023-04-15T10:37:02;12.43;;;6.82;;
27293;SDS011;14785;52.556;13.430;2023-04-15T10:39:43;13.95;;;6.82;;
27293;SDS011;14785;52.556;13.430;2023-04-15T10:42:10;10.45;;;5.97;;
27293;SDS011;14785;52.556;13.430;2023-04-15T10:44:37;9.20;;;5.28;;
27293;SDS011;14785;52.556;13.430;2023-04-15T10:47:09;9.48;;;4.85;;
27293;SDS011;14785;52.556;13.430;2023-04-15T10:49:43;9.07;;;5.47;;
27293;SDS011;14785;52.556;13.430;2023-04-15T10:52:29;10.45;;;6.38;;
27293;SDS011;14785;52.556;13.430;2023-04-15T10:55:12;11.10;;;6.37;;
27293;SDS011;14785;52.556;13.430;2023-04-15T10:57:40;9.45;;;5.40;;
27293;SDS011;14785;52.556;13.430;2023-04-15T11:02:46;9.27;;;5.13;;
27293;SDS011;14785;52.556;13.430;2023-04-15T11:08:13;15.27;;;6.53;;
27293;SDS011;14785;52.556;13.430;2023-04-15T11:20:46;8.57;;;5.53;;
27293;SDS011;14785;52.556;13.430;2023-04-15T11:23:14;8.70;;;6.13;;
27293;SDS011;14785;52.556;13.430;2023-04-15T11:25:42;11.25;;;6.05;;
27293;SDS011;14785;52.556;13.430;2023-04-15T11:28:07;17.77;;;8.75;;
27293;SDS011;14785;52.556;13.430;2023-04-15T11:30:34;12.63;;;6.30;;
27293;SDS011;14785;52.556;13.430;2023-04-15T11:33:04;9.35;;;5.90;;
27293;SDS011;14785;52.556;13.430;2023-04-15T11:35:31;9.43;;;5.78;;
27293;SDS011;14785;52.556;13.430;2023-04-15T11:37:57;10.13;;;5.53;;
27293;SDS011;14785;52.556;13.430;2023-04-15T11:40:23;10.27;;;5.43;;
27293;SDS011;14785;52.556;13.430;2023-04-15T11:43:10;7.35;;;4.30;;
27293;SDS011;14785;52.556;13.430;2023-04-15T11:45:36;11.68;;;6.18;;
27293;SDS011;14785;52.556;13.430;2023-04-15T11:50:38;12.50;;;7.93;;
27293;SDS011;14785;52.556;13.430;2023-04-15T11:53:05;9.85;;;5.30;;
27293;SDS011;14785;52.556;13.430;2023-04-15T11:55:42;9.18;;;4.82;;
27293;SDS011;14785;52.556;13.430;2023-04-15T12:00:40;7.65;;;5.28;;
27293;SDS011;14785;52.556;13.430;2023-04-15T12:03:12;8.05;;;5.40;;
27293;SDS011;14785;52.556;13.430;2023-04-15T12:11:16;9.32;;;5.70;;
27293;SDS011;14785;52.556;13.430;2023-04-15T12:13:45;8.50;;;4.68;;
27293;SDS011;14785;52.556;13.430;2023-04-15T12:16:12;11.43;;;5.30;;
27293;SDS011;14785;52.556;13.430;2023-04-15T12:18:40;9.82;;;6.30;;
27293;SDS011;14785;52.556;13.430;2023-04-15T12:21:09;7.77;;;4.70;;
27293;SDS011;14785;52.556;13.430;2023-04-15T12:23:39;8.52;;;4.65;;
27293;SDS011;14785;52.556;13.430;2023-04-15T12:26:13;8.05;;;4.90;;
27293;SDS011;14785;52.556;13.430;2023-04-15T12:28:39;8.57;;;4.93;;
27293;SDS011;14785;52.556;13.430;2023-04-15T12:31:09;7.32;;;5.03;;
27293;SDS011;14785;52.556;13.430;2023-04-15T12:33:37;11.63;;;5.28;;
27293;SDS011;14785;52.556;13.430;2023-04-15T12:36:03;9.98;;;6.85;;
27293;SDS011;14785;52.556;13.430;2023-04-15T12:38:29;8.47;;;5.97;;
27293;SDS011;14785;52.556;13.430;2023-04-15T12:40:55;9.00;;;4.55;;
27293;SDS011;14785;52.556;13.430;2023-04-15T12:43:21;5.78;;;3.75;;
27293;SDS011;14785;52.556;13.430;2023-04-15T12:45:47;7.80;;;4.90;;
27293;SDS011;14785;52.556;13.430;2023-04-15T12:48:12;9.87;;;5.73;;
27293;SDS011;14785;52.556;13.430;2023-04-15T12:50:37;10.43;;;5.80;;
27293;SDS011;14785;52.556;13.430;2023-04-15T12:53:03;7.50;;;4.57;;
27293;SDS011;14785;52.556;13.430;2023-04-15T12:55:28;6.17;;;3.97;;
27293;SDS011;14785;52.556;13.430;2023-04-15T12:57:54;7.00;;;4.22;;
27293;SDS011;14785;52.556;13.430;2023-04-15T13:00:22;7.30;;;4.55;;
27293;SDS011;14785;52.556;13.430;2023-04-15T13:02:48;9.17;;;4.20;;
27293;SDS011;14785;52.556;13.430;2023-04-15T13:05:13;8.30;;;4.93;;
27293;SDS011;14785;52.556;13.430;2023-04-15T13:07:40;9.30;;;4.32;;
27293;SDS011;14785;52.556;13.430;2023-04-15T13:10:06;21.67;;;10.15;;
27293;SDS011;14785;52.556;13.430;2023-04-15T13:12:31;8.40;;;4.68;;
27293;SDS011;14785;52.556;13.430;2023-04-15T13:15:00;8.52;;;4.78;;
27293;SDS011;14785;52.556;13.430;2023-04-15T13:17:26;8.07;;;3.63;;
27293;SDS011;14785;52.556;13.430;2023-04-15T13:19:52;7.07;;;4.47;;
27293;SDS011;14785;52.556;13.430;2023-04-15T13:22:17;8.47;;;3.80;;
27293;SDS011;14785;52.556;13.430;2023-04-15T13:24:43;6.95;;;3.67;;
27293;SDS011;14785;52.556;13.430;2023-04-15T13:27:09;6.18;;;4.00;;
27293;SDS011;14785;52.556;13.430;2023-04-15T13:29:35;5.93;;;3.80;;
27293;SDS011;14785;52.556;13.430;2023-04-15T13:32:00;4.70;;;2.67;;
27293;SDS011;14785;52.556;13.430;2023-04-15T13:34:25;7.03;;;4.00;;
27293;SDS011;14785;52.556;13.430;2023-04-15T13:36:51;9.63;;;4.20;;
27293;SDS011;14785;52.556;13.430;2023-04-15T13:39:16;7.87;;;3.73;;
27293;SDS011;14785;52.556;13.430;2023-04-15T13:41:42;5.43;;;3.83;;
27293;SDS011;14785;52.556;13.430;2023-04-15T13:44:07;8.43;;;4.50;;
27293;SDS011;14785;52.556;13.430;2023-04-15T13:46:32;8.00;;;2.83;;
27293;SDS011;14785;52.556;13.430;2023-04-15T13:48:58;6.20;;;4.00;;
27293;SDS011;14785;52.556;13.430;2023-04-15T13:51:23;6.13;;;3.27;;
27293;SDS011;14785;52.556;13.430;2023-04-15T13:53:49;5.73;;;3.87;;
27293;SDS011;14785;52.556;13.430;2023-04-15T13:56:14;7.47;;;3.97;;
27293;SDS011;14785;52.556;13.430;2023-04-15T13:58:40;8.37;;;4.70;;
27293;SDS011;14785;52.556;13.430;2023-04-15T14:01:05;7.13;;;3.40;;
27293;SDS011;14785;52.556;13.430;2023-04-15T14:03:31;6.13;;;3.67;;
27293;SDS011;14785;52.556;13.430;2023-04-15T14:05:56;4.53;;;3.80;;
27293;SDS011;14785;52.556;13.430;2023-04-15T14:08:23;4.13;;;2.90;;
27293;SDS011;14785;52.556;13.430;2023-04-15T14:10:49;3.53;;;2.75;;
27293;SDS011;14785;52.556;13.430;2023-04-15T14:13:15;4.27;;;3.40;;
27293;SDS011;14785;52.556;13.430;2023-04-15T14:15:40;3.90;;;2.70;;
27293;SDS011;14785;52.556;13.430;2023-04-15T14:18:06;4.30;;;2.70;;
27293;SDS011;14785;52.556;13.430;2023-04-15T14:20:32;5.82;;;2.90;;
27293;SDS011;14785;52.556;13.430;2023-04-15T14:22:57;3.40;;;2.10;;
27293;SDS011;14785;52.556;13.430;2023-04-15T14:25:23;6.00;;;3.47;;
27293;SDS011;14785;52.556;13.430;2023-04-15T14:27:48;5.67;;;3.10;;
27293;SDS011;14785;52.556;13.430;2023-04-15T14:30:14;7.37;;;5.03;;
27293;SDS011;14785;52.556;13.430;2023-04-15T14:32:39;3.57;;;2.90;;
27293;SDS011;14785;52.556;13.430;2023-04-15T14:35:05;5.87;;;3.30;;
27293;SDS011;14785;52.556;13.430;2023-04-15T14:37:31;3.88;;;1.92;;
27293;SDS011;14785;52.556;13.430;2023-04-15T14:39:58;4.50;;;2.50;;
27293;SDS011;14785;52.556;13.430;2023-04-15T14:42:23;4.88;;;3.47;;
27293;SDS011;14785;52.556;13.430;2023-04-15T14:44:49;4.57;;;3.27;;
27293;SDS011;14785;52.556;13.430;2023-04-15T14:47:15;6.30;;;2.80;;
27293;SDS011;14785;52.556;13.430;2023-04-15T14:49:42;5.07;;;3.15;;
27293;SDS011;14785;52.556;13.430;2023-04-15T14:52:08;6.07;;;3.25;;
27293;SDS011;14785;52.556;13.430;2023-04-15T14:54:34;5.03;;;3.43;;
27293;SDS011;14785;52.556;13.430;2023-04-15T14:56:59;6.60;;;3.87;;
27293;SDS011;14785;52.556;13.430;2023-04-15T14:59:26;4.32;;;2.95;;
27293;SDS011;14785;52.556;13.430;2023-04-15T15:01:51;9.80;;;3.77;;
27293;SDS011;14785;52.556;13.430;2023-04-15T15:04:17;5.40;;;3.13;;
27293;SDS011;14785;52.556;13.430;2023-04-15T15:06:42;5.63;;;4.23;;
27293;SDS011;14785;52.556;13.430;2023-04-15T15:09:08;6.97;;;5.20;;
27293;SDS011;14785;52.556;13.430;2023-04-15T15:11:33;8.63;;;4.57;;